Time,TemperatureF,DewpointF,PressureIn,WindDirection,WindDirectionDegrees,WindSpeedMPH,WindSpeedGustMPH,Humidity,HourlyPrecipIn,Conditions,Clouds,dailyrainin,SoftwareType,DateUTC
2013-01-09 00:05:00,46.4,38.2,30.21,NNW,337,4.0,-999.0,73,-99.99,,,0.00,Acu-Link.com,2013-01-09 05:05:00,
2013-01-09 00:20:00,46.4,38.2,30.21,NNE,22,5.1,-999.0,73,-99.99,,,0.00,Acu-Link.com,2013-01-09 05:20:00,
2013-01-09 00:35:00,46.4,38.2,30.21,NW,315,2.7,-999.0,73,-99.99,,,0.00,Acu-Link.com,2013-01-09 05:35:00,
2013-01-09 00:51:00,46.4,38.6,30.22,NNE,22,3.6,-999.0,74,-99.99,,,0.00,Acu-Link.com,2013-01-09 05:51:00,
2013-01-09 01:06:00,46.4,38.2,30.22,NNE,22,2.7,-999.0,73,-99.99,,,0.00,Acu-Link.com,2013-01-09 06:06:00,
2013-01-09 01:21:00,46.4,38.2,30.22,NNW,337,2.0,-999.0,73,-99.99,,,0.00,Acu-Link.com,2013-01-09 06:21:00,
2013-01-09 01:36:00,46.4,38.2,30.22,NE,45,1.6,-999.0,73,-99.99,,,0.00,Acu-Link.com,2013-01-09 06:36:00,
2013-01-09 01:51:00,46.4,38.6,30.23,NNW,337,3.1,-999.0,74,-99.99,,,0.00,Acu-Link.com,2013-01-09 06:51:00,
2013-01-09 02:07:00,46.4,38.6,30.23,NNW,337,3.6,-999.0,74,-99.99,,,0.00,Acu-Link.com,2013-01-09 07:07:00,
2013-01-09 02:22:00,46.4,38.6,30.23,ENE,67,0.0,-999.0,74,-99.99,,,0.00,Acu-Link.com,2013-01-09 07:22:00,
2013-01-09 02:37:00,46.4,38.9,30.23,NNW,337,1.6,-999.0,75,-99.99,,,0.00,Acu-Link.com,2013-01-09 07:37:00,
2013-01-09 02:52:00,46.4,39.3,30.23,North,0,1.6,-999.0,76,-99.99,,,0.00,Acu-Link.com,2013-01-09 07:52:00,
2013-01-09 03:08:00,46.4,39.3,30.23,North,0,0.0,-999.0,76,-99.99,,,0.00,Acu-Link.com,2013-01-09 08:08:00,
2013-01-09 03:23:00,46.4,39.3,30.23,NW,315,0.0,-999.0,76,-99.99,,,0.00,Acu-Link.com,2013-01-09 08:23:00,
2013-01-09 03:38:00,46.4,39.3,30.22,NNW,337,0.0,-999.0,76,-99.99,,,0.00,Acu-Link.com,2013-01-09 08:38:00,
2013-01-09 03:53:00,46.4,39.6,30.21,NNW,337,2.0,-999.0,77,-99.99,,,0.00,Acu-Link.com,2013-01-09 08:53:00,
2013-01-09 04:12:00,46.4,39.6,30.22,NW,315,1.6,-999.0,77,-99.99,,,0.00,Acu-Link.com,2013-01-09 09:12:00,
2013-01-09 04:27:00,46.4,39.6,30.22,ESE,112,0.0,-999.0,77,-99.99,,,0.00,Acu-Link.com,2013-01-09 09:27:00,
2013-01-09 04:42:00,46.4,39.9,30.22,East,90,0.0,-999.0,78,-99.99,,,0.00,Acu-Link.com,2013-01-09 09:42:00,
2013-01-09 04:57:00,46.4,40.2,30.21,West,270,0.0,-999.0,79,-99.99,,,0.00,Acu-Link.com,2013-01-09 09:57:00,
2013-01-09 05:12:00,46.4,39.9,30.20,East,90,0.0,-999.0,78,-99.99,,,0.00,Acu-Link.com,2013-01-09 10:12:00,
2013-01-09 05:27:00,46.4,39.9,30.21,SSW,202,0.0,-999.0,78,-99.99,,,0.00,Acu-Link.com,2013-01-09 10:27:00,
2013-01-09 05:42:00,46.4,40.9,30.21,NNW,337,0.0,-999.0,81,-99.99,,,0.00,Acu-Link.com,2013-01-09 10:42:00,
2013-01-09 05:57:00,46.4,40.9,30.21,North,0,2.0,-999.0,81,-99.99,,,0.00,Acu-Link.com,2013-01-09 10:57:00,
2013-01-09 06:13:00,46.4,40.9,30.22,NNW,337,0.0,-999.0,81,-99.99,,,0.00,Acu-Link.com,2013-01-09 11:13:00,
2013-01-09 06:28:00,46.4,40.6,30.21,NE,45,0.0,-999.0,80,-99.99,,,0.00,Acu-Link.com,2013-01-09 11:28:00,
2013-01-09 06:43:00,48.2,42.6,30.21,West,270,0.0,-999.0,81,-99.99,,,0.00,Acu-Link.com,2013-01-09 11:43:00,
2013-01-09 06:58:00,48.2,43.0,30.22,North,0,0.0,-999.0,82,-99.99,,,0.00,Acu-Link.com,2013-01-09 11:58:00,
2013-01-09 07:13:00,48.2,42.6,30.23,NNE,22,0.0,-999.0,81,-99.99,,,0.00,Acu-Link.com,2013-01-09 12:13:00,
2013-01-09 07:28:00,48.2,42.6,30.24,NW,315,0.0,-999.0,81,-99.99,,,0.00,Acu-Link.com,2013-01-09 12:28:00,
2013-01-09 07:44:00,48.2,42.6,30.24,ESE,112,0.0,-999.0,81,-99.99,,,0.00,Acu-Link.com,2013-01-09 12:44:00,
2013-01-09 07:59:00,48.2,43.0,30.24,West,270,0.0,-999.0,82,-99.99,,,0.00,Acu-Link.com,2013-01-09 12:59:00,
2013-01-09 08:14:00,50.0,44.7,30.25,SW,225,0.0,-999.0,82,-99.99,,,0.00,Acu-Link.com,2013-01-09 13:14:00,
2013-01-09 08:29:00,50.0,44.4,30.26,West,270,0.0,-999.0,81,-99.99,,,0.00,Acu-Link.com,2013-01-09 13:29:00,
2013-01-09 08:44:00,51.8,45.2,30.26,SW,225,0.0,-999.0,78,-99.99,,,0.00,Acu-Link.com,2013-01-09 13:44:00,
2013-01-09 08:59:00,51.8,44.5,30.27,NW,315,0.0,-999.0,76,-99.99,,,0.00,Acu-Link.com,2013-01-09 13:59:00,
2013-01-09 09:14:00,55.4,45.8,30.27,NNE,22,0.0,-999.0,70,-99.99,,,0.00,Acu-Link.com,2013-01-09 14:14:00,
2013-01-09 09:30:00,55.4,46.2,30.28,SSE,157,1.1,-999.0,71,-99.99,,,0.00,Acu-Link.com,2013-01-09 14:30:00,
2013-01-09 09:45:00,55.4,46.2,30.28,ESE,112,2.7,-999.0,71,-99.99,,,0.00,Acu-Link.com,2013-01-09 14:45:00,
2013-01-09 10:00:00,57.2,47.9,30.28,NNE,22,2.0,-999.0,71,-99.99,,,0.00,Acu-Link.com,2013-01-09 15:00:00,
2013-01-09 10:15:00,59.0,48.8,30.28,SSE,157,4.0,-999.0,69,-99.99,,,0.00,Acu-Link.com,2013-01-09 15:15:00,
2013-01-09 10:30:00,60.8,50.2,30.28,SW,225,0.0,-999.0,68,-99.99,,,0.00,Acu-Link.com,2013-01-09 15:30:00,
2013-01-09 10:45:00,60.8,49.8,30.27,WSW,247,2.7,-999.0,67,-99.99,,,0.00,Acu-Link.com,2013-01-09 15:45:00,
2013-01-09 11:01:00,60.8,51.7,30.28,WSW,247,2.7,-999.0,72,-99.99,,,0.00,Acu-Link.com,2013-01-09 16:01:00,
2013-01-09 11:16:00,60.8,51.7,30.28,SW,225,2.7,-999.0,72,-99.99,,,0.00,Acu-Link.com,2013-01-09 16:16:00,
2013-01-09 11:31:00,62.6,53.8,30.27,NW,315,1.1,-999.0,73,-99.99,,,0.00,Acu-Link.com,2013-01-09 16:31:00,
2013-01-09 11:46:00,62.6,53.1,30.27,West,270,1.1,-999.0,71,-99.99,,,0.00,Acu-Link.com,2013-01-09 16:46:00,
2013-01-09 12:01:00,62.6,52.7,30.26,WNW,292,2.0,-999.0,70,-99.99,,,0.00,Acu-Link.com,2013-01-09 17:01:00,
2013-01-09 12:16:00,62.6,52.7,30.25,NE,45,1.6,-999.0,70,-99.99,,,0.00,Acu-Link.com,2013-01-09 17:16:00,
2013-01-09 12:32:00,62.6,51.5,30.24,ESE,112,1.1,-999.0,67,-99.99,,,0.00,Acu-Link.com,2013-01-09 17:32:00,
2013-01-09 12:47:00,62.6,52.3,30.24,WNW,292,1.6,-999.0,69,-99.99,,,0.00,Acu-Link.com,2013-01-09 17:47:00,
2013-01-09 13:02:00,64.4,53.6,30.23,NW,315,3.1,-999.0,68,-99.99,,,0.00,Acu-Link.com,2013-01-09 18:02:00,
2013-01-09 13:17:00,64.4,53.6,30.22,NNW,337,1.1,-999.0,68,-99.99,,,0.00,Acu-Link.com,2013-01-09 18:17:00,
2013-01-09 13:32:00,64.4,53.2,30.22,SSW,202,2.0,-999.0,67,-99.99,,,0.00,Acu-Link.com,2013-01-09 18:32:00,
2013-01-09 13:47:00,66.2,54.1,30.22,West,270,1.6,-999.0,65,-99.99,,,0.00,Acu-Link.com,2013-01-09 18:47:00,
2013-01-09 14:02:00,66.2,54.1,30.22,NW,315,1.6,-999.0,65,-99.99,,,0.00,Acu-Link.com,2013-01-09 19:02:00,
2013-01-09 14:17:00,64.4,53.2,30.22,WSW,247,1.1,-999.0,67,-99.99,,,0.00,Acu-Link.com,2013-01-09 19:17:00,
2013-01-09 14:32:00,64.4,53.6,30.22,West,270,0.0,-999.0,68,-99.99,,,0.00,Acu-Link.com,2013-01-09 19:32:00,
2013-01-09 14:48:00,64.4,53.6,30.22,SW,225,0.0,-999.0,68,-99.99,,,0.00,Acu-Link.com,2013-01-09 19:48:00,
2013-01-09 15:03:00,64.4,53.2,30.22,SW,225,0.0,-999.0,67,-99.99,,,0.00,Acu-Link.com,2013-01-09 20:03:00,
2013-01-09 15:18:00,64.4,52.8,30.21,SE,135,0.0,-999.0,66,-99.99,,,0.00,Acu-Link.com,2013-01-09 20:18:00,
2013-01-09 15:33:00,64.4,52.8,30.21,West,270,2.0,-999.0,66,-99.99,,,0.00,Acu-Link.com,2013-01-09 20:33:00,
2013-01-09 15:48:00,64.4,53.2,30.22,SW,225,0.0,-999.0,67,-99.99,,,0.00,Acu-Link.com,2013-01-09 20:48:00,
2013-01-09 16:03:00,62.6,52.3,30.22,SW,225,2.7,-999.0,69,-99.99,,,0.00,Acu-Link.com,2013-01-09 21:03:00,
2013-01-09 16:18:00,62.6,53.1,30.22,SSW,202,0.0,-999.0,71,-99.99,,,0.00,Acu-Link.com,2013-01-09 21:18:00,
2013-01-09 16:33:00,62.6,53.4,30.23,SSE,157,0.0,-999.0,72,-99.99,,,0.00,Acu-Link.com,2013-01-09 21:33:00,
2013-01-09 16:49:00,62.6,54.6,30.22,West,270,0.0,-999.0,75,-99.99,,,0.00,Acu-Link.com,2013-01-09 21:49:00,
2013-01-09 17:04:00,60.8,52.8,30.21,SW,225,0.0,-999.0,75,-99.99,,,0.00,Acu-Link.com,2013-01-09 22:04:00,
2013-01-09 17:19:00,60.8,53.2,30.22,South,180,0.0,-999.0,76,-99.99,,,0.00,Acu-Link.com,2013-01-09 22:19:00,
2013-01-09 17:34:00,59.0,52.1,30.22,South,180,0.0,-999.0,78,-99.99,,,0.00,Acu-Link.com,2013-01-09 22:34:00,
2013-01-09 17:49:00,59.0,52.5,30.22,West,270,0.0,-999.0,79,-99.99,,,0.00,Acu-Link.com,2013-01-09 22:49:00,
2013-01-09 18:05:00,59.0,52.1,30.23,SSE,157,0.0,-999.0,78,-99.99,,,0.00,Acu-Link.com,2013-01-09 23:05:00,
2013-01-09 18:20:00,59.0,53.5,30.24,SSE,157,0.0,-999.0,82,-99.99,,,0.00,Acu-Link.com,2013-01-09 23:20:00,
2013-01-09 18:35:00,59.0,53.8,30.24,East,90,0.0,-999.0,83,-99.99,,,0.00,Acu-Link.com,2013-01-09 23:35:00,
2013-01-09 18:50:00,57.2,52.7,30.23,East,90,0.0,-999.0,85,-99.99,,,0.00,Acu-Link.com,2013-01-09 23:50:00,
2013-01-09 19:05:00,57.2,52.7,30.23,West,270,0.0,-999.0,85,-99.99,,,0.00,Acu-Link.com,2013-01-10 00:05:00,
2013-01-09 19:20:00,57.2,52.7,30.23,SW,225,1.6,-999.0,85,-99.99,,,0.00,Acu-Link.com,2013-01-10 00:20:00,
2013-01-09 19:35:00,57.2,52.7,30.23,South,180,0.0,-999.0,85,-99.99,,,0.00,Acu-Link.com,2013-01-10 00:35:00,
2013-01-09 19:51:00,55.4,51.0,30.22,SSE,157,0.0,-999.0,85,-99.99,,,0.00,Acu-Link.com,2013-01-10 00:51:00,
2013-01-09 20:06:00,55.4,51.3,30.23,WSW,247,0.0,-999.0,86,-99.99,,,0.00,Acu-Link.com,2013-01-10 01:06:00,
2013-01-09 20:21:00,55.4,51.3,30.23,SSW,202,0.0,-999.0,86,-99.99,,,0.00,Acu-Link.com,2013-01-10 01:21:00,
2013-01-09 20:36:00,55.4,51.9,30.23,NNE,22,1.6,-999.0,88,-99.99,,,0.00,Acu-Link.com,2013-01-10 01:36:00,
2013-01-09 20:51:00,55.4,51.9,30.23,NW,315,0.0,-999.0,88,-99.99,,,0.00,Acu-Link.com,2013-01-10 01:51:00,
2013-01-09 21:07:00,53.6,50.4,30.24,South,180,0.0,-999.0,89,-99.99,,,0.00,Acu-Link.com,2013-01-10 02:07:00,
2013-01-09 21:22:00,53.6,50.4,30.25,West,270,0.0,-999.0,89,-99.99,,,0.00,Acu-Link.com,2013-01-10 02:22:00,
2013-01-09 21:37:00,53.6,51.0,30.24,NNW,337,0.0,-999.0,91,-99.99,,,0.00,Acu-Link.com,2013-01-10 02:37:00,
2013-01-09 21:52:00,53.6,51.0,30.25,SW,225,0.0,-999.0,91,-99.99,,,0.00,Acu-Link.com,2013-01-10 02:52:00,
2013-01-09 22:07:00,53.6,51.0,30.25,SSW,202,0.0,-999.0,91,-99.99,,,0.00,Acu-Link.com,2013-01-10 03:07:00,
2013-01-09 22:22:00,53.6,51.0,30.27,NNW,337,0.0,-999.0,91,-99.99,,,0.00,Acu-Link.com,2013-01-10 03:22:00,
2013-01-09 22:37:00,53.6,51.0,30.27,North,0,2.7,-999.0,91,-99.99,,,0.00,Acu-Link.com,2013-01-10 03:37:00,
2013-01-09 22:52:00,53.6,51.0,30.27,North,0,1.6,-999.0,91,-99.99,,,0.00,Acu-Link.com,2013-01-10 03:52:00,
2013-01-09 23:08:00,53.6,51.0,30.27,NW,315,0.0,-999.0,91,-99.99,,,0.00,Acu-Link.com,2013-01-10 04:08:00,
2013-01-09 23:23:00,53.6,51.0,30.27,NE,45,1.6,-999.0,91,-99.99,,,0.00,Acu-Link.com,2013-01-10 04:23:00,
2013-01-09 23:38:00,53.6,51.0,30.27,NE,45,2.7,-999.0,91,-99.99,,,0.00,Acu-Link.com,2013-01-10 04:38:00,
2013-01-09 23:53:00,53.6,50.7,30.27,NW,315,0.0,-999.0,90,-99.99,,,0.00,Acu-Link.com,2013-01-10 04:53:00,